Time;durP1;ratioP1;P1;durP2;ratioP2;P2;SDS_P1;SDS_P2;PMS_P1;PMS_P2;Temp;Humidity;BMP_temperature;BMP_pressure;BME280_temperature;BME280_humidity;BME280_pressure;Samples;Min_cycle;Max_cycle;Signal;HPM_P1;HPM_P2
2023/03/08 00:01:00;;;;;;;21.20;8.53;;;4.80;63.10;;;;;;5049992;28;20937;-76
2023/03/08 00:03:26;;;;;;;17.23;8.10;;;4.80;63.10;;;;;;5029666;28;20541;-75
2023/03/08 00:05:52;;;;;;;16.80;8.50;;;4.90;63.10;;;;;;5031315;28;20287;-76
2023/03/08 00:08:18;;;;;;;15.43;7.70;;;4.90;63.10;;;;;;5048098;28;20205;-76
2023/03/08 00:10:44;;;;;;;17.93;8.20;;;4.90;63.40;;;;;;5048082;28;20195;-76
2023/03/08 00:13:10;;;;;;;19.07;8.60;;;4.90;63.10;;;;;;5045961;28;20890;-76
2023/03/08 00:15:37;;;;;;;14.10;7.73;;;4.90;63.40;;;;;;5046975;28;20434;-76
2023/03/08 00:18:04;;;;;;;19.20;8.23;;;4.90;63.40;;;;;;5042910;28;21134;-75
2023/03/08 00:20:29;;;;;;;16.37;7.80;;;4.90;63.50;;;;;;5051505;28;20419;-75
2023/03/08 00:22:55;;;;;;;19.90;9.20;;;5.00;63.40;;;;;;5051060;28;20431;-76
2023/03/08 00:25:20;;;;;;;15.63;7.93;;;5.00;63.50;;;;;;5053078;28;20252;-76
2023/03/08 00:27:46;;;;;;;16.47;8.10;;;5.00;63.50;;;;;;5028452;28;20224;-77
2023/03/08 00:30:13;;;;;;;15.33;8.00;;;4.90;63.50;;;;;;5050749;28;20188;-76
2023/03/08 00:32:38;;;;;;;18.70;8.37;;;5.00;63.50;;;;;;5051897;28;20191;-75
2023/03/08 00:35:04;;;;;;;21.47;8.30;;;4.90;63.80;;;;;;5053866;28;20804;-76
2023/03/08 00:37:30;;;;;;;19.57;7.90;;;5.00;63.80;;;;;;5050873;28;20236;-75
2023/03/08 00:39:56;;;;;;;17.13;8.33;;;5.00;63.70;;;;;;5051886;28;20442;-75
2023/03/08 00:42:22;;;;;;;17.50;8.13;;;5.00;63.80;;;;;;5030467;28;20430;-75
2023/03/08 00:44:48;;;;;;;15.20;8.50;;;5.00;63.80;;;;;;5046282;28;20204;-75
2023/03/08 00:47:14;;;;;;;20.40;9.40;;;4.90;63.90;;;;;;5048559;28;20439;-75
2023/03/08 00:49:40;;;;;;;20.37;7.97;;;4.90;64.10;;;;;;5045467;28;20180;-74
2023/03/08 00:52:06;;;;;;;15.87;8.30;;;4.90;64.20;;;;;;5054817;28;20442;-74
2023/03/08 00:54:31;;;;;;;17.07;7.97;;;4.90;64.20;;;;;;5034129;28;20570;-74
2023/03/08 00:56:57;;;;;;;15.73;7.77;;;4.90;64.20;;;;;;5056230;28;20420;-75
2023/03/08 00:59:23;;;;;;;17.10;8.77;;;4.90;64.20;;;;;;5058279;28;20271;-76
2023/03/08 01:01:49;;;;;;;17.73;8.10;;;4.90;64.20;;;;;;5058356;28;20203;-76
2023/03/08 01:04:15;;;;;;;18.13;8.93;;;4.90;64.20;;;;;;5066063;28;20459;-75
2023/03/08 01:06:42;;;;;;;16.47;8.40;;;4.90;64.20;;;;;;5065059;28;20181;-76
2023/03/08 01:09:08;;;;;;;18.60;8.97;;;4.90;64.40;;;;;;5066809;28;20643;-75
2023/03/08 01:11:35;;;;;;;15.90;8.43;;;4.80;64.70;;;;;;5054302;28;20423;-76
2023/03/08 01:14:02;;;;;;;18.73;9.10;;;4.80;64.80;;;;;;5053038;28;20438;-77
2023/03/08 01:16:29;;;;;;;24.80;8.30;;;4.80;65.10;;;;;;5030751;28;20462;-77
2023/03/08 01:18:56;;;;;;;18.40;8.30;;;4.70;65.60;;;;;;5026764;28;20478;-75
2023/03/08 01:21:23;;;;;;;16.40;8.50;;;4.60;66.00;;;;;;5029103;28;20807;-76
2023/03/08 01:23:49;;;;;;;15.77;8.20;;;4.60;66.30;;;;;;5056191;28;20435;-76
2023/03/08 01:26:17;;;;;;;21.83;9.40;;;4.50;66.70;;;;;;5042425;28;20426;-74
2023/03/08 01:28:44;;;;;;;16.80;9.00;;;4.50;66.90;;;;;;5061057;28;20473;-76
2023/03/08 01:31:22;;;;;;;22.97;9.53;;;4.40;67.00;;;;;;5059536;28;20492;-76
2023/03/08 01:33:48;;;;;;;24.30;11.07;;;4.40;67.30;;;;;;5049532;28;20798;-77
2023/03/08 01:36:17;;;;;;;22.30;9.30;;;4.40;67.50;;;;;;5055991;28;20491;-75
2023/03/08 01:38:44;;;;;;;21.93;8.53;;;4.30;67.60;;;;;;5053948;28;20458;-75
2023/03/08 01:41:18;;;;;;;17.70;9.27;;;4.30;67.70;;;;;;5051362;28;20407;-76
2023/03/08 01:43:45;;;;;;;19.00;8.83;;;4.20;67.90;;;;;;5059301;28;20407;-75
2023/03/08 01:46:18;;;;;;;19.23;9.20;;;4.20;68.30;;;;;;5070861;28;20486;-74
2023/03/08 01:48:50;;;;;;;23.63;11.17;;;4.20;68.50;;;;;;5029941;28;20491;-77
2023/03/08 01:51:25;;;;;;;34.90;14.07;;;4.10;68.60;;;;;;5050251;28;20442;-76
2023/03/08 01:53:52;;;;;;;18.47;10.60;;;4.10;68.80;;;;;;5022092;28;20435;-77
2023/03/08 01:56:18;;;;;;;20.00;9.83;;;4.00;69.10;;;;;;5031409;28;20438;-76
2023/03/08 01:58:46;;;;;;;20.53;9.63;;;4.00;69.10;;;;;;5027117;28;20466;-76
2023/03/08 02:01:13;;;;;;;22.50;9.70;;;4.00;69.20;;;;;;5035772;28;20427;-76
2023/03/08 02:03:38;;;;;;;21.37;10.37;;;3.90;69.50;;;;;;5052678;28;20430;-76
2023/03/08 02:06:05;;;;;;;20.50;9.50;;;3.90;69.50;;;;;;5050672;28;20557;-77
2023/03/08 02:08:32;;;;;;;17.63;9.40;;;3.80;69.70;;;;;;5043037;28;20222;-75
2023/03/08 02:10:59;;;;;;;21.30;10.27;;;3.80;69.80;;;;;;5027819;28;20780;-76
2023/03/08 02:13:25;;;;;;;21.20;9.43;;;3.80;70.10;;;;;;5029786;28;20430;-76
2023/03/08 02:15:54;;;;;;;18.33;9.20;;;3.80;69.90;;;;;;5047850;28;20455;-77
2023/03/08 02:18:20;;;;;;;18.77;9.23;;;3.80;70.20;;;;;;5052035;28;20470;-77
2023/03/08 02:20:46;;;;;;;24.10;10.93;;;3.80;70.20;;;;;;5054705;28;21316;-74
2023/03/08 02:23:14;;;;;;;18.33;9.27;;;3.80;70.20;;;;;;5053979;28;20188;-76
2023/03/08 02:25:48;;;;;;;24.20;10.37;;;3.80;70.20;;;;;;5053980;28;20212;-74
2023/03/08 02:28:14;;;;;;;18.80;8.43;;;3.80;70.20;;;;;;5049826;28;20474;-77
2023/03/08 02:30:39;;;;;;;18.30;9.00;;;3.80;70.20;;;;;;5050216;28;20429;-76
2023/03/08 02:33:05;;;;;;;19.07;9.20;;;3.80;70.20;;;;;;5054215;28;20790;-74
2023/03/08 02:35:31;;;;;;;23.10;9.47;;;3.80;70.20;;;;;;5050399;28;20556;-75
2023/03/08 02:37:57;;;;;;;25.40;10.97;;;3.90;69.90;;;;;;5048002;28;20725;-74
2023/03/08 02:40:22;;;;;;;17.90;9.20;;;3.80;69.90;;;;;;5052856;28;20455;-76
2023/03/08 02:42:48;;;;;;;19.83;8.87;;;3.90;69.90;;;;;;5049995;28;20211;-75
2023/03/08 02:45:14;;;;;;;22.30;9.70;;;3.90;69.80;;;;;;5046619;28;20296;-77
2023/03/08 02:47:40;;;;;;;26.73;10.60;;;3.90;69.80;;;;;;5048305;28;20209;-75
2023/03/08 02:50:06;;;;;;;21.93;9.37;;;3.90;69.80;;;;;;5036225;28;20213;-78
2023/03/08 02:52:32;;;;;;;21.30;9.30;;;3.90;69.80;;;;;;5052836;28;20538;-75
2023/03/08 02:54:58;;;;;;;20.50;9.47;;;3.90;69.70;;;;;;5049269;28;20977;-74
2023/03/08 02:57:23;;;;;;;20.30;9.10;;;3.80;69.70;;;;;;5043473;28;20216;-76
2023/03/08 02:59:49;;;;;;;21.13;9.27;;;3.90;69.70;;;;;;5050783;28;20268;-75
2023/03/08 03:02:14;;;;;;;18.27;9.00;;;3.90;69.70;;;;;;5049388;28;20188;-76
2023/03/08 03:04:40;;;;;;;17.53;8.67;;;3.90;69.40;;;;;;5052915;28;20699;-75
2023/03/08 03:07:06;;;;;;;20.47;8.90;;;4.00;69.40;;;;;;5027592;28;20672;-76
2023/03/08 03:09:33;;;;;;;19.87;8.77;;;4.00;69.10;;;;;;5047158;28;20173;-75
2023/03/08 03:11:59;;;;;;;18.73;9.23;;;4.00;69.10;;;;;;5045483;28;20224;-74
2023/03/08 03:14:27;;;;;;;19.73;8.43;;;4.00;69.10;;;;;;5052756;28;20451;-75
2023/03/08 03:16:52;;;;;;;19.53;9.00;;;3.90;69.10;;;;;;5023397;28;20193;-77
2023/03/08 03:19:18;;;;;;;17.13;9.00;;;4.00;69.10;;;;;;5051360;28;20451;-75
2023/03/08 03:21:43;;;;;;;18.30;9.07;;;4.00;68.90;;;;;;5052549;28;20674;-76
2023/03/08 03:24:09;;;;;;;23.40;9.27;;;4.00;68.90;;;;;;5053425;28;20208;-76
2023/03/08 03:26:34;;;;;;;21.27;9.50;;;4.00;68.90;;;;;;5032063;28;20250;-76
2023/03/08 03:29:00;;;;;;;19.93;8.40;;;4.00;68.80;;;;;;5046432;28;20208;-76
2023/03/08 03:31:27;;;;;;;19.73;8.83;;;4.00;68.90;;;;;;5048936;28;20188;-75
2023/03/08 03:33:53;;;;;;;19.87;9.30;;;4.00;68.90;;;;;;5048549;28;20870;-76
2023/03/08 03:36:20;;;;;;;20.53;8.80;;;4.10;68.60;;;;;;5053871;28;20446;-75
2023/03/08 03:38:47;;;;;;;17.37;8.20;;;4.10;68.50;;;;;;5052068;28;20512;-76
2023/03/08 03:41:15;;;;;;;15.30;7.53;;;4.00;68.60;;;;;;5059258;28;20430;-75
2023/03/08 03:43:41;;;;;;;18.40;8.43;;;4.00;68.80;;;;;;5035728;28;20415;-74
2023/03/08 03:46:11;;;;;;;16.77;8.10;;;4.10;68.50;;;;;;5057262;28;20470;-76
2023/03/08 03:48:37;;;;;;;17.33;9.23;;;4.10;68.30;;;;;;5059383;28;20474;-76
2023/03/08 03:51:10;;;;;;;18.33;8.47;;;4.10;68.30;;;;;;5054240;28;20423;-76
2023/03/08 03:53:36;;;;;;;16.90;7.80;;;4.10;67.50;;;;;;5051406;28;20686;-75
2023/03/08 03:56:16;;;;;;;15.87;8.60;;;4.20;67.50;;;;;;5056716;28;20518;-75
2023/03/08 03:58:42;;;;;;;18.40;7.70;;;4.20;67.30;;;;;;5045078;28;20486;-76
2023/03/08 04:01:16;;;;;;;20.27;8.57;;;4.20;67.50;;;;;;5049499;28;20457;-75
2023/03/08 04:03:42;;;;;;;15.27;7.30;;;4.30;67.30;;;;;;5049868;28;20193;-76
2023/03/08 04:06:13;;;;;;;17.10;8.27;;;4.30;67.20;;;;;;5050135;28;20561;-75
2023/03/08 04:08:41;;;;;;;14.50;8.20;;;4.30;67.30;;;;;;5051685;28;20463;-76
2023/03/08 04:11:12;;;;;;;20.40;9.00;;;4.30;67.30;;;;;;5044017;28;20442;-76
2023/03/08 04:13:38;;;;;;;15.03;7.87;;;4.30;67.30;;;;;;5043263;28;20960;-74
2023/03/08 04:16:21;;;;;;;19.10;9.00;;;4.40;67.30;;;;;;5050683;28;20933;-76
2023/03/08 04:18:47;;;;;;;16.47;8.70;;;4.30;67.30;;;;;;5050792;28;20496;-75
2023/03/08 04:21:14;;;;;;;16.77;8.67;;;4.30;67.30;;;;;;5049540;28;20419;-76
2023/03/08 04:23:39;;;;;;;18.23;8.60;;;4.40;67.30;;;;;;5051229;28;20431;-75
2023/03/08 04:26:05;;;;;;;18.20;9.00;;;4.40;67.20;;;;;;5028808;28;20494;-76
2023/03/08 04:28:32;;;;;;;14.97;8.07;;;4.30;67.50;;;;;;5044809;28;20216;-77
2023/03/08 04:30:59;;;;;;;19.40;8.73;;;4.40;67.30;;;;;;5054760;28;20449;-75
2023/03/08 04:33:24;;;;;;;23.03;9.20;;;4.30;67.50;;;;;;5061987;28;20450;-76
2023/03/08 04:35:50;;;;;;;21.50;9.50;;;4.30;67.60;;;;;;5053405;28;20932;-75
2023/03/08 04:38:16;;;;;;;20.37;9.13;;;4.30;67.60;;;;;;5052809;28;20524;-76
2023/03/08 04:41:00;;;;;;;18.17;8.60;;;4.30;67.90;;;;;;5054009;28;20671;-76
2023/03/08 04:43:27;;;;;;;20.33;7.30;;;4.30;67.90;;;;;;5037223;28;20435;-76
2023/03/08 04:45:52;;;;;;;16.10;8.53;;;4.20;68.20;;;;;;5054569;28;20470;-76
2023/03/08 04:48:18;;;;;;;15.37;8.30;;;4.30;68.00;;;;;;5046117;28;20443;-76
2023/03/08 04:50:43;;;;;;;18.10;8.60;;;4.30;68.00;;;;;;5054637;28;20378;-76
2023/03/08 04:53:09;;;;;;;17.80;9.43;;;4.30;68.00;;;;;;5055171;28;20196;-75
2023/03/08 04:55:37;;;;;;;16.70;8.30;;;4.30;67.90;;;;;;5053653;28;20184;-76
2023/03/08 04:58:03;;;;;;;16.87;7.63;;;4.40;67.70;;;;;;5034367;28;20238;-74
2023/03/08 05:00:29;;;;;;;20.07;9.23;;;4.40;67.60;;;;;;5051499;28;20424;-76
2023/03/08 05:02:54;;;;;;;15.80;8.97;;;4.50;67.50;;;;;;5027091;28;20185;-74
2023/03/08 05:05:20;;;;;;;20.10;9.00;;;4.40;67.60;;;;;;5047449;28;20209;-76
2023/03/08 05:07:45;;;;;;;18.10;8.40;;;4.40;67.70;;;;;;5054280;28;20204;-74
2023/03/08 05:10:11;;;;;;;22.23;9.23;;;4.40;68.00;;;;;;5055944;28;20184;-73
2023/03/08 05:12:36;;;;;;;18.27;9.30;;;4.40;68.00;;;;;;5065558;28;20192;-76
2023/03/08 05:15:02;;;;;;;23.93;10.03;;;4.40;68.00;;;;;;5037879;28;20200;-74
2023/03/08 05:17:28;;;;;;;17.10;9.50;;;4.50;68.00;;;;;;5032960;28;20208;-76
2023/03/08 05:19:53;;;;;;;22.27;9.70;;;4.50;68.20;;;;;;5052571;28;20338;-76
2023/03/08 05:22:19;;;;;;;19.93;8.50;;;4.50;68.00;;;;;;5027131;28;20185;-77
2023/03/08 05:24:45;;;;;;;18.30;9.80;;;4.50;68.00;;;;;;5048458;28;20239;-75
2023/03/08 05:27:10;;;;;;;23.73;9.90;;;4.50;68.20;;;;;;5048307;28;20176;-75
2023/03/08 05:29:36;;;;;;;20.23;10.23;;;4.50;68.20;;;;;;5046330;28;20438;-76
2023/03/08 05:32:02;;;;;;;23.97;10.63;;;4.50;68.20;;;;;;5051673;28;20180;-75
2023/03/08 05:34:29;;;;;;;20.13;10.00;;;4.50;67.90;;;;;;5050736;28;20628;-77
2023/03/08 05:36:55;;;;;;;22.00;11.37;;;4.60;67.90;;;;;;5029842;28;20469;-75
2023/03/08 05:39:20;;;;;;;20.03;9.40;;;4.60;67.90;;;;;;5047492;28;20462;-76
2023/03/08 05:41:46;;;;;;;20.63;9.63;;;4.60;67.90;;;;;;5050916;28;20415;-77
2023/03/08 05:44:12;;;;;;;23.80;9.03;;;4.70;67.70;;;;;;5049920;28;20207;-76
2023/03/08 05:46:38;;;;;;;16.83;9.20;;;4.70;67.30;;;;;;5028830;28;20419;-75
2023/03/08 05:49:04;;;;;;;19.70;9.43;;;4.80;67.50;;;;;;5047209;28;20208;-75
2023/03/08 05:51:30;;;;;;;23.53;9.87;;;4.80;67.30;;;;;;5055409;28;20199;-79
2023/03/08 05:53:56;;;;;;;18.97;9.10;;;4.80;67.30;;;;;;5055693;28;20434;-76
2023/03/08 05:56:22;;;;;;;27.20;10.40;;;4.80;67.00;;;;;;5049166;28;20188;-76
2023/03/08 05:58:49;;;;;;;23.30;10.70;;;4.80;67.20;;;;;;5054532;28;20529;-75
2023/03/08 06:01:16;;;;;;;20.27;10.27;;;4.90;67.30;;;;;;5053405;28;20417;-75
2023/03/08 06:03:47;;;;;;;23.00;10.93;;;4.90;67.50;;;;;;5035662;28;20789;-76
2023/03/08 06:06:13;;;;;;;23.33;11.03;;;4.90;67.60;;;;;;5055653;28;20466;-75
2023/03/08 06:08:39;;;;;;;21.07;10.33;;;4.90;67.70;;;;;;5054904;28;20876;-74
2023/03/08 06:11:05;;;;;;;27.87;11.07;;;4.90;67.90;;;;;;5056140;28;20414;-76
2023/03/08 06:13:31;;;;;;;18.50;10.53;;;5.00;68.00;;;;;;5053513;28;20426;-76
2023/03/08 06:15:59;;;;;;;23.03;11.07;;;5.00;68.20;;;;;;5051152;28;20435;-75
2023/03/08 06:18:25;;;;;;;24.53;12.37;;;5.00;68.30;;;;;;5052026;28;20837;-75
2023/03/08 06:21:05;;;;;;;20.33;10.37;;;5.00;68.30;;;;;;5054381;28;20484;-75
2023/03/08 06:23:33;;;;;;;22.50;10.50;;;5.00;68.50;;;;;;5049485;28;20516;-74
2023/03/08 06:25:58;;;;;;;23.53;11.20;;;5.10;68.50;;;;;;5053725;28;20470;-76
2023/03/08 06:28:25;;;;;;;24.97;11.30;;;5.00;68.90;;;;;;5048675;28;20470;-76
2023/03/08 06:30:51;;;;;;;23.27;11.20;;;5.00;69.10;;;;;;5058708;28;20550;-76
2023/03/08 06:33:18;;;;;;;24.37;12.83;;;5.00;69.20;;;;;;5054620;28;20895;-76
2023/03/08 06:36:04;;;;;;;35.70;13.47;;;5.00;69.40;;;;;;5055675;28;20431;-76
2023/03/08 06:38:33;;;;;;;36.33;13.47;;;5.10;69.50;;;;;;5056087;28;20458;-76
2023/03/08 06:40:59;;;;;;;29.23;13.13;;;5.10;69.20;;;;;;5058251;28;20415;-76
2023/03/08 06:43:27;;;;;;;28.60;12.60;;;5.10;69.10;;;;;;5059454;28;20485;-75
2023/03/08 06:45:52;;;;;;;29.63;12.00;;;5.10;69.10;;;;;;5058954;28;20467;-76
2023/03/08 06:48:18;;;;;;;24.20;11.37;;;5.20;69.20;;;;;;5038204;28;20465;-76
2023/03/08 06:50:44;;;;;;;28.03;12.30;;;5.20;68.90;;;;;;5052648;28;20273;-76
2023/03/08 06:53:11;;;;;;;26.63;12.47;;;5.30;68.90;;;;;;5053173;28;20457;-76
2023/03/08 06:55:38;;;;;;;29.53;12.57;;;5.40;68.80;;;;;;5047572;28;20466;-75
2023/03/08 06:58:04;;;;;;;25.73;12.47;;;5.30;68.60;;;;;;5046602;28;20925;-75
2023/03/08 07:00:30;;;;;;;31.87;11.77;;;5.40;68.50;;;;;;5053496;28;20468;-76
2023/03/08 07:02:55;;;;;;;25.97;11.90;;;5.40;68.30;;;;;;5054519;28;20516;-75
2023/03/08 07:05:21;;;;;;;22.90;11.27;;;5.50;68.20;;;;;;5049032;28;20466;-76
2023/03/08 07:07:47;;;;;;;28.60;12.10;;;5.50;68.30;;;;;;5027170;28;20270;-76
2023/03/08 07:10:15;;;;;;;22.63;10.33;;;5.60;67.60;;;;;;5029828;28;20426;-77
2023/03/08 07:12:42;;;;;;;26.80;12.10;;;5.70;67.30;;;;;;5054589;28;20563;-76
2023/03/08 07:15:13;;;;;;;28.47;12.27;;;5.70;66.90;;;;;;5054258;28;20429;-76
2023/03/08 07:17:40;;;;;;;24.17;12.07;;;5.70;67.70;;;;;;5049935;28;20509;-75
2023/03/08 07:20:06;;;;;;;21.60;11.27;;;5.80;67.50;;;;;;5034268;28;20459;-75
2023/03/08 07:22:32;;;;;;;24.37;11.87;;;5.80;66.70;;;;;;5054494;28;20418;-75
2023/03/08 07:24:58;;;;;;;29.20;11.87;;;5.80;66.60;;;;;;5052735;28;20466;-75
2023/03/08 07:27:24;;;;;;;21.73;11.37;;;5.80;67.00;;;;;;5050428;28;20558;-76
2023/03/08 07:29:49;;;;;;;21.10;11.70;;;5.90;66.70;;;;;;5055924;28;20309;-76
2023/03/08 07:32:15;;;;;;;29.93;11.70;;;5.90;66.40;;;;;;5061949;28;20187;-74
2023/03/08 07:34:41;;;;;;;24.93;12.13;;;5.90;67.00;;;;;;5059757;28;20181;-76
2023/03/08 07:37:11;;;;;;;25.00;11.50;;;6.00;66.70;;;;;;5035733;28;20568;-75
2023/03/08 07:39:37;;;;;;;24.33;11.53;;;6.10;66.40;;;;;;5036298;28;20295;-76
2023/03/08 07:42:03;;;;;;;25.43;10.87;;;6.10;66.10;;;;;;5054757;28;20516;-75
2023/03/08 07:44:29;;;;;;;24.27;12.47;;;6.20;65.80;;;;;;5049632;28;20201;-76
2023/03/08 07:46:54;;;;;;;21.43;10.63;;;6.20;65.60;;;;;;5047423;28;20426;-75
2023/03/08 07:49:20;;;;;;;26.67;11.33;;;6.20;65.70;;;;;;5051745;28;20188;-74
2023/03/08 07:51:48;;;;;;;23.27;11.10;;;6.30;65.70;;;;;;5054357;28;20194;-75
2023/03/08 07:54:13;;;;;;;26.63;11.33;;;6.30;65.60;;;;;;5052941;28;20185;-76
2023/03/08 07:56:39;;;;;;;22.87;10.80;;;6.30;65.70;;;;;;5054038;28;20988;-76
2023/03/08 07:59:05;;;;;;;24.73;10.40;;;6.40;66.00;;;;;;5049252;28;20204;-76
2023/03/08 08:01:31;;;;;;;21.00;10.00;;;6.40;65.80;;;;;;5055423;28;20207;-74
2023/03/08 08:03:58;;;;;;;23.87;11.50;;;6.30;66.30;;;;;;5051082;28;20683;-74
2023/03/08 08:06:24;;;;;;;21.50;10.63;;;6.40;66.40;;;;;;5054769;28;20458;-75
2023/03/08 08:08:50;;;;;;;25.10;10.43;;;6.40;66.70;;;;;;5044900;28;20988;-75
2023/03/08 08:11:18;;;;;;;23.37;10.33;;;6.40;67.20;;;;;;5053010;28;20443;-76
2023/03/08 08:13:45;;;;;;;25.50;10.73;;;6.50;67.30;;;;;;5053221;28;20244;-76
2023/03/08 08:16:12;;;;;;;23.13;11.27;;;6.50;67.90;;;;;;5054297;28;20427;-76
2023/03/08 08:18:38;;;;;;;20.10;10.07;;;6.60;68.20;;;;;;5054519;28;20486;-77
2023/03/08 08:21:12;;;;;;;25.57;12.63;;;6.60;68.00;;;;;;5040945;28;20477;-77
2023/03/08 08:23:39;;;;;;;22.93;10.70;;;6.50;68.90;;;;;;5032809;28;20518;-76
2023/03/08 08:26:06;;;;;;;21.37;11.13;;;6.60;69.10;;;;;;5055293;28;20470;-74
2023/03/08 08:28:32;;;;;;;23.50;10.23;;;6.60;69.50;;;;;;5037430;28;20467;-74
2023/03/08 08:31:01;;;;;;;22.00;11.07;;;6.60;69.80;;;;;;5052040;28;20411;-74
2023/03/08 08:33:28;;;;;;;22.70;10.97;;;6.70;70.10;;;;;;5058367;28;20430;-74
2023/03/08 08:35:53;;;;;;;18.03;9.50;;;6.70;70.20;;;;;;5041567;28;20454;-74
2023/03/08 08:38:19;;;;;;;21.20;10.10;;;6.70;70.20;;;;;;5043132;28;20459;-74
2023/03/08 08:40:45;;;;;;;21.53;10.97;;;6.80;70.40;;;;;;5067240;28;20200;-74
2023/03/08 08:43:11;;;;;;;16.30;8.83;;;6.80;70.70;;;;;;5053422;28;20234;-73
2023/03/08 08:45:40;;;;;;;20.13;9.47;;;6.80;71.00;;;;;;5053045;28;20470;-74
2023/03/08 08:48:06;;;;;;;21.93;9.80;;;6.90;71.10;;;;;;5053455;28;20215;-75
2023/03/08 08:50:32;;;;;;;20.33;9.63;;;6.90;71.70;;;;;;5053374;28;20415;-74
2023/03/08 08:52:57;;;;;;;22.20;9.50;;;6.90;72.10;;;;;;5053293;28;20200;-74
2023/03/08 08:55:23;;;;;;;18.17;9.00;;;6.90;72.30;;;;;;5048947;28;20651;-73
2023/03/08 08:57:48;;;;;;;21.67;10.27;;;7.00;72.90;;;;;;5052731;28;20209;-74
2023/03/08 09:00:15;;;;;;;28.83;11.03;;;6.90;72.60;;;;;;5051987;28;20241;-74
2023/03/08 09:02:40;;;;;;;22.47;10.30;;;6.90;72.90;;;;;;5028561;28;20189;-75
2023/03/08 09:05:07;;;;;;;19.33;9.40;;;6.90;73.20;;;;;;5052741;28;20477;-74
2023/03/08 09:07:32;;;;;;;23.93;10.43;;;6.90;72.90;;;;;;5052166;28;20204;-75
2023/03/08 09:09:59;;;;;;;23.20;10.70;;;7.00;73.00;;;;;;5052131;28;20434;-75
2023/03/08 09:12:24;;;;;;;23.57;10.33;;;7.00;73.00;;;;;;5051814;28;20200;-74
2023/03/08 09:14:50;;;;;;;23.20;10.50;;;7.00;73.00;;;;;;5052319;28;20504;-74
2023/03/08 09:17:16;;;;;;;24.30;10.93;;;7.10;72.70;;;;;;5052713;28;20200;-74
2023/03/08 09:19:41;;;;;;;30.87;12.40;;;7.00;72.00;;;;;;5054098;28;20750;-74
2023/03/08 09:22:07;;;;;;;20.70;10.50;;;7.00;72.10;;;;;;5059282;28;20185;-74
2023/03/08 09:24:32;;;;;;;21.93;10.53;;;7.00;72.30;;;;;;5062026;28;20204;-73
2023/03/08 09:26:58;;;;;;;23.80;12.23;;;7.10;72.40;;;;;;5061738;28;20640;-75
2023/03/08 09:29:23;;;;;;;27.00;11.93;;;7.10;72.10;;;;;;5061791;28;20192;-75
2023/03/08 09:31:49;;;;;;;26.47;11.90;;;7.10;72.00;;;;;;5059552;28;20206;-74
2023/03/08 09:34:15;;;;;;;24.77;11.93;;;7.10;72.10;;;;;;5043502;28;20195;-74
2023/03/08 09:36:41;;;;;;;22.40;12.00;;;7.10;71.60;;;;;;5054304;28;20222;-74
2023/03/08 09:39:08;;;;;;;25.03;11.53;;;7.10;71.80;;;;;;5027688;28;20476;-74
2023/03/08 09:41:49;;;;;;;25.77;12.43;;;7.10;71.40;;;;;;5045092;28;20918;-73
2023/03/08 09:44:26;;;;;;;29.37;11.77;;;7.10;71.70;;;;;;5049064;28;20422;-74
2023/03/08 09:46:58;;;;;;;23.83;11.80;;;7.20;72.00;;;;;;5034625;28;20426;-74
2023/03/08 09:49:30;;;;;;;21.87;11.07;;;7.30;71.10;;;;;;5052954;28;20427;-73
2023/03/08 09:52:06;;;;;;;24.50;11.43;;;7.40;70.10;;;;;;5053042;28;20530;-74
2023/03/08 09:54:37;;;;;;;21.90;11.27;;;7.30;69.90;;;;;;5040773;28;20491;-74
2023/03/08 09:57:07;;;;;;;27.40;12.90;;;7.40;70.40;;;;;;5034716;28;20439;-75
2023/03/08 09:59:42;;;;;;;24.80;12.77;;;7.60;70.40;;;;;;5040541;28;20418;-73
2023/03/08 10:02:27;;;;;;;25.47;12.30;;;7.70;70.20;;;;;;5053843;28;20411;-74
2023/03/08 10:04:59;;;;;;;28.13;12.17;;;7.60;69.90;;;;;;5054174;28;20969;-74
2023/03/08 10:07:47;;;;;;;23.00;11.33;;;7.70;70.70;;;;;;5048712;28;21108;-73
2023/03/08 10:10:29;;;;;;;20.70;10.53;;;7.80;71.00;;;;;;5046671;28;20414;-74
2023/03/08 10:13:36;;;;;;;25.00;11.67;;;7.90;70.80;;;;;;5050136;28;20415;-73
2023/03/08 10:16:22;;;;;;;20.50;9.17;;;8.10;70.70;;;;;;4980635;28;20469;-73
2023/03/08 10:19:04;;;;;;;22.50;9.37;;;8.00;72.60;;;;;;4968772;28;20446;-74
2023/03/08 10:21:32;;;;;;;20.17;9.00;;;7.90;73.00;;;;;;4971090;28;20509;-73
2023/03/08 10:24:23;;;;;;;15.40;8.00;;;8.00;73.30;;;;;;4955662;28;20866;-75
2023/03/08 10:26:49;;;;;;;15.27;7.60;;;8.10;74.00;;;;;;4966379;28;21068;-74
2023/03/08 10:29:14;;;;;;;11.10;6.87;;;8.20;74.50;;;;;;4971453;28;20490;-73
2023/03/08 10:31:42;;;;;;;13.40;6.83;;;8.30;74.90;;;;;;4972000;28;20202;-74
2023/03/08 10:34:23;;;;;;;12.43;6.47;;;8.40;75.10;;;;;;4974804;28;20206;-73
2023/03/08 10:37:05;;;;;;;10.40;5.70;;;8.50;75.20;;;;;;4975414;28;20424;-75
2023/03/08 10:39:30;;;;;;;10.80;5.93;;;8.60;75.20;;;;;;4967513;28;20494;-74
2023/03/08 10:41:58;;;;;;;15.40;7.03;;;8.70;75.20;;;;;;4975618;28;20462;-74
2023/03/08 10:44:50;;;;;;;12.80;5.80;;;8.80;75.20;;;;;;4959147;28;20314;-75
2023/03/08 10:47:25;;;;;;;13.37;7.20;;;9.00;74.90;;;;;;4973843;28;20579;-75
2023/03/08 10:50:03;;;;;;;9.50;5.47;;;9.20;74.90;;;;;;5009802;28;20422;-73
2023/03/08 10:52:29;;;;;;;9.70;4.60;;;9.30;75.10;;;;;;5056152;28;20415;-74
2023/03/08 10:55:16;;;;;;;10.23;5.27;;;9.40;74.90;;;;;;5056068;28;20493;-74
2023/03/08 10:58:07;;;;;;;9.13;5.43;;;9.70;74.90;;;;;;5049096;28;20204;-74
2023/03/08 11:00:42;;;;;;;10.70;4.13;;;10.00;74.50;;;;;;5048007;28;20790;-74
2023/03/08 11:03:18;;;;;;;7.67;4.20;;;10.30;74.00;;;;;;5057080;28;20561;-73
2023/03/08 11:06:13;;;;;;;8.43;4.50;;;10.40;73.90;;;;;;5056690;28;20462;-73
2023/03/08 11:08:51;;;;;;;6.23;3.30;;;10.50;73.90;;;;;;5064667;28;20968;-74
2023/03/08 11:11:16;;;;;;;6.53;3.20;;;10.40;74.00;;;;;;5067482;28;20433;-75
2023/03/08 11:13:45;;;;;;;5.17;2.93;;;10.50;74.20;;;;;;5063373;28;20439;-75
2023/03/08 11:16:21;;;;;;;7.70;3.73;;;10.60;74.00;;;;;;5045010;28;20177;-74
2023/03/08 11:19:11;;;;;;;2.63;2.17;;;10.70;74.00;;;;;;5058249;28;20457;-75
2023/03/08 11:22:02;;;;;;;4.03;2.20;;;10.80;74.20;;;;;;5065815;28;20418;-75
2023/03/08 11:24:49;;;;;;;3.90;2.23;;;10.90;74.20;;;;;;5051988;28;20471;-75
2023/03/08 11:27:24;;;;;;;9.20;2.10;;;10.90;74.00;;;;;;5037134;28;20418;-75
2023/03/08 11:30:01;;;;;;;6.93;2.00;;;11.00;74.20;;;;;;5057693;28;20774;-75
2023/03/08 11:32:45;;;;;;;5.53;2.33;;;11.00;74.20;;;;;;5057070;28;20446;-74
2023/03/08 11:35:14;;;;;;;3.20;1.70;;;11.00;74.20;;;;;;5056137;28;20449;-74
2023/03/08 11:38:06;;;;;;;2.40;1.90;;;11.00;74.20;;;;;;5058945;28;20453;-73
2023/03/08 11:40:53;;;;;;;3.67;2.00;;;11.00;74.30;;;;;;5031050;28;20439;-75
2023/03/08 11:43:38;;;;;;;3.17;1.97;;;11.10;74.20;;;;;;5054600;28;20415;-74
2023/03/08 11:46:09;;;;;;;3.03;1.70;;;11.20;74.20;;;;;;5057167;28;20459;-74
2023/03/08 11:48:52;;;;;;;2.77;1.60;;;11.30;73.90;;;;;;5043125;28;20450;-74
2023/03/08 11:51:33;;;;;;;3.10;1.50;;;11.30;73.90;;;;;;5056899;28;20403;-75
2023/03/08 11:54:02;;;;;;;4.30;1.80;;;11.40;74.00;;;;;;5059765;28;20411;-74
2023/03/08 11:56:33;;;;;;;2.23;1.40;;;11.50;73.60;;;;;;5048514;28;20478;-74
2023/03/08 11:59:37;;;;;;;4.10;1.63;;;11.50;73.70;;;;;;5053772;28;20497;-74
2023/03/08 12:02:05;;;;;;;3.33;1.50;;;11.60;73.70;;;;;;5057167;28;20516;-74
2023/03/08 12:04:46;;;;;;;3.50;1.60;;;11.60;73.60;;;;;;5056192;28;20463;-74
2023/03/08 12:07:22;;;;;;;2.20;1.30;;;11.70;73.60;;;;;;5068946;28;20450;-75
2023/03/08 12:10:12;;;;;;;3.43;1.70;;;11.70;73.60;;;;;;5068184;28;20422;-74
2023/03/08 12:13:00;;;;;;;2.63;1.50;;;11.70;73.90;;;;;;5036176;28;20408;-74
2023/03/08 12:15:28;;;;;;;3.00;1.63;;;11.70;73.70;;;;;;5036559;28;20498;-75
2023/03/08 12:18:37;;;;;;;2.77;1.70;;;11.70;73.90;;;;;;5045840;28;20446;-75
2023/03/08 12:21:17;;;;;;;7.03;1.93;;;11.70;73.90;;;;;;5046452;28;20426;-74
2023/03/08 12:24:17;;;;;;;2.50;1.70;;;11.80;73.90;;;;;;5040498;28;20842;-73
2023/03/08 12:26:54;;;;;;;3.03;1.70;;;11.90;73.70;;;;;;5061863;28;20427;-74
2023/03/08 12:29:29;;;;;;;3.50;1.80;;;12.00;73.60;;;;;;5063529;28;20427;-73
2023/03/08 12:31:55;;;;;;;2.03;1.40;;;12.10;73.50;;;;;;5064745;28;20463;-76
2023/03/08 12:34:26;;;;;;;2.50;1.60;;;12.20;73.30;;;;;;5063238;28;20403;-74
2023/03/08 12:36:51;;;;;;;3.33;1.70;;;12.10;73.60;;;;;;5054037;28;20498;-74
2023/03/08 12:39:26;;;;;;;3.20;1.47;;;12.10;73.60;;;;;;5054067;28;20546;-75
2023/03/08 12:42:13;;;;;;;5.47;1.33;;;12.20;73.50;;;;;;5053799;28;20263;-75
2023/03/08 12:44:39;;;;;;;3.70;1.87;;;12.20;73.30;;;;;;5053302;28;20541;-74
2023/03/08 12:47:10;;;;;;;2.80;1.70;;;12.20;73.50;;;;;;5035558;28;21233;-74
2023/03/08 12:49:39;;;;;;;3.00;1.50;;;12.40;73.30;;;;;;5046261;28;20265;-75
2023/03/08 12:52:22;;;;;;;3.57;1.50;;;12.40;73.20;;;;;;5053378;28;20794;-75
2023/03/08 12:54:59;;;;;;;3.03;1.27;;;12.60;73.00;;;;;;5040257;28;20506;-74